sensor_id;sensor_type;location;lat;lon;timestamp;P1;durP1;ratioP1;P2;durP2;ratioP2
18217;SDS011;9234;49.344;11.120;2022-09-20T00:01:37;4.70;;;1.48;;
18217;SDS011;9234;49.344;11.120;2022-09-20T00:04:05;3.63;;;1.23;;
18217;SDS011;9234;49.344;11.120;2022-09-20T00:06:33;2.92;;;0.90;;
18217;SDS011;9234;49.344;11.120;2022-09-20T00:09:03;2.60;;;0.88;;
18217;SDS011;9234;49.344;11.120;2022-09-20T00:11:33;3.45;;;1.30;;
18217;SDS011;9234;49.344;11.120;2022-09-20T00:14:03;4.95;;;1.40;;
18217;SDS011;9234;49.344;11.120;2022-09-20T00:16:35;2.58;;;1.55;;
18217;SDS011;9234;49.344;11.120;2022-09-20T00:19:06;4.57;;;1.55;;
18217;SDS011;9234;49.344;11.120;2022-09-20T00:21:43;3.30;;;1.20;;
18217;SDS011;9234;49.344;11.120;2022-09-20T00:24:12;3.25;;;1.20;;
18217;SDS011;9234;49.344;11.120;2022-09-20T00:26:41;6.38;;;1.30;;
18217;SDS011;9234;49.344;11.120;2022-09-20T00:29:09;6.97;;;1.38;;
18217;SDS011;9234;49.344;11.120;2022-09-20T00:31:39;4.37;;;1.43;;
18217;SDS011;9234;49.344;11.120;2022-09-20T00:34:08;3.05;;;0.93;;
18217;SDS011;9234;49.344;11.120;2022-09-20T00:36:54;4.00;;;1.23;;
18217;SDS011;9234;49.344;11.120;2022-09-20T00:39:24;3.28;;;1.40;;
18217;SDS011;9234;49.344;11.120;2022-09-20T00:41:52;3.25;;;1.17;;
18217;SDS011;9234;49.344;11.120;2022-09-20T00:44:40;1.75;;;1.00;;
18217;SDS011;9234;49.344;11.120;2022-09-20T00:47:14;3.08;;;1.05;;
18217;SDS011;9234;49.344;11.120;2022-09-20T00:49:54;3.95;;;1.23;;
18217;SDS011;9234;49.344;11.120;2022-09-20T00:52:38;2.13;;;1.10;;
18217;SDS011;9234;49.344;11.120;2022-09-20T00:55:12;2.85;;;0.88;;
18217;SDS011;9234;49.344;11.120;2022-09-20T00:57:43;4.88;;;1.38;;
18217;SDS011;9234;49.344;11.120;2022-09-20T01:00:13;3.77;;;1.40;;
18217;SDS011;9234;49.344;11.120;2022-09-20T01:02:43;4.07;;;1.20;;
18217;SDS011;9234;49.344;11.120;2022-09-20T01:05:15;3.60;;;1.33;;
18217;SDS011;9234;49.344;11.120;2022-09-20T01:07:45;2.28;;;1.13;;
18217;SDS011;9234;49.344;11.120;2022-09-20T01:10:18;5.95;;;1.30;;
18217;SDS011;9234;49.344;11.120;2022-09-20T01:12:46;2.00;;;1.23;;
18217;SDS011;9234;49.344;11.120;2022-09-20T01:15:17;3.28;;;1.10;;
18217;SDS011;9234;49.344;11.120;2022-09-20T01:17:49;3.17;;;1.30;;
18217;SDS011;9234;49.344;11.120;2022-09-20T01:20:21;2.03;;;1.50;;
18217;SDS011;9234;49.344;11.120;2022-09-20T01:23:00;5.15;;;1.73;;
18217;SDS011;9234;49.344;11.120;2022-09-20T01:26:02;3.40;;;1.20;;
18217;SDS011;9234;49.344;11.120;2022-09-20T01:29:06;4.50;;;1.35;;
18217;SDS011;9234;49.344;11.120;2022-09-20T01:31:49;2.00;;;1.40;;
18217;SDS011;9234;49.344;11.120;2022-09-20T01:34:22;5.73;;;1.47;;
18217;SDS011;9234;49.344;11.120;2022-09-20T01:37:01;1.13;;;1.03;;
18217;SDS011;9234;49.344;11.120;2022-09-20T01:39:40;3.33;;;1.50;;
18217;SDS011;9234;49.344;11.120;2022-09-20T01:42:24;2.72;;;1.55;;
18217;SDS011;9234;49.344;11.120;2022-09-20T01:45:03;6.70;;;1.52;;
18217;SDS011;9234;49.344;11.120;2022-09-20T01:47:43;1.35;;;1.10;;
18217;SDS011;9234;49.344;11.120;2022-09-20T01:50:24;2.13;;;1.40;;
18217;SDS011;9234;49.344;11.120;2022-09-20T01:56:53;4.97;;;1.73;;
18217;SDS011;9234;49.344;11.120;2022-09-20T02:00:05;2.45;;;1.50;;
18217;SDS011;9234;49.344;11.120;2022-09-20T02:02:53;1.65;;;1.08;;
18217;SDS011;9234;49.344;11.120;2022-09-20T02:06:11;2.45;;;1.30;;
18217;SDS011;9234;49.344;11.120;2022-09-20T02:09:06;1.95;;;1.48;;
18217;SDS011;9234;49.344;11.120;2022-09-20T02:15:01;2.65;;;1.40;;
18217;SDS011;9234;49.344;11.120;2022-09-20T02:17:44;3.20;;;1.55;;
18217;SDS011;9234;49.344;11.120;2022-09-20T02:20:29;2.60;;;1.75;;
18217;SDS011;9234;49.344;11.120;2022-09-20T02:23:06;4.43;;;1.90;;
18217;SDS011;9234;49.344;11.120;2022-09-20T02:25:55;3.58;;;1.27;;
18217;SDS011;9234;49.344;11.120;2022-09-20T02:28:54;5.93;;;1.30;;
18217;SDS011;9234;49.344;11.120;2022-09-20T02:31:47;4.28;;;1.40;;
18217;SDS011;9234;49.344;11.120;2022-09-20T02:40:55;3.80;;;1.27;;
18217;SDS011;9234;49.344;11.120;2022-09-20T02:43:48;6.90;;;1.45;;
18217;SDS011;9234;49.344;11.120;2022-09-20T02:46:27;3.45;;;1.15;;
18217;SDS011;9234;49.344;11.120;2022-09-20T02:49:09;2.63;;;1.20;;
18217;SDS011;9234;49.344;11.120;2022-09-20T02:51:49;4.15;;;1.15;;
18217;SDS011;9234;49.344;11.120;2022-09-20T02:54:27;1.25;;;1.02;;
18217;SDS011;9234;49.344;11.120;2022-09-20T02:57:11;1.95;;;1.30;;
18217;SDS011;9234;49.344;11.120;2022-09-20T02:59:52;2.45;;;1.50;;
18217;SDS011;9234;49.344;11.120;2022-09-20T03:02:29;6.65;;;1.50;;
18217;SDS011;9234;49.344;11.120;2022-09-20T03:05:12;3.85;;;1.20;;
18217;SDS011;9234;49.344;11.120;2022-09-20T03:07:54;3.00;;;1.33;;
18217;SDS011;9234;49.344;11.120;2022-09-20T03:10:38;2.45;;;1.08;;
18217;SDS011;9234;49.344;11.120;2022-09-20T03:13:21;4.78;;;1.67;;
18217;SDS011;9234;49.344;11.120;2022-09-20T03:16:07;3.17;;;1.20;;
18217;SDS011;9234;49.344;11.120;2022-09-20T03:18:46;3.25;;;1.30;;
18217;SDS011;9234;49.344;11.120;2022-09-20T03:21:32;3.40;;;1.52;;
18217;SDS011;9234;49.344;11.120;2022-09-20T03:24:17;3.17;;;1.38;;
18217;SDS011;9234;49.344;11.120;2022-09-20T03:27:03;6.53;;;2.15;;
18217;SDS011;9234;49.344;11.120;2022-09-20T03:29:46;4.93;;;1.60;;
18217;SDS011;9234;49.344;11.120;2022-09-20T03:32:31;4.07;;;1.40;;
18217;SDS011;9234;49.344;11.120;2022-09-20T03:35:27;5.75;;;2.45;;
18217;SDS011;9234;49.344;11.120;2022-09-20T03:38:26;5.30;;;2.13;;
18217;SDS011;9234;49.344;11.120;2022-09-20T03:41:15;3.22;;;1.88;;
18217;SDS011;9234;49.344;11.120;2022-09-20T03:44:06;4.03;;;1.77;;
18217;SDS011;9234;49.344;11.120;2022-09-20T03:46:59;6.25;;;2.10;;
18217;SDS011;9234;49.344;11.120;2022-09-20T03:49:49;7.50;;;2.27;;
18217;SDS011;9234;49.344;11.120;2022-09-20T03:52:56;4.43;;;1.97;;
18217;SDS011;9234;49.344;11.120;2022-09-20T03:59:04;12.45;;;5.20;;
18217;SDS011;9234;49.344;11.120;2022-09-20T04:01:57;13.57;;;4.05;;
18217;SDS011;9234;49.344;11.120;2022-09-20T04:04:48;8.70;;;3.85;;
18217;SDS011;9234;49.344;11.120;2022-09-20T04:07:26;4.73;;;2.87;;
18217;SDS011;9234;49.344;11.120;2022-09-20T04:10:15;3.73;;;2.23;;
18217;SDS011;9234;49.344;11.120;2022-09-20T04:13:03;5.88;;;2.70;;
18217;SDS011;9234;49.344;11.120;2022-09-20T04:15:50;4.53;;;2.75;;
18217;SDS011;9234;49.344;11.120;2022-09-20T04:18:36;4.95;;;2.90;;
18217;SDS011;9234;49.344;11.120;2022-09-20T04:21:13;5.73;;;3.03;;
18217;SDS011;9234;49.344;11.120;2022-09-20T04:23:50;6.27;;;3.20;;
18217;SDS011;9234;49.344;11.120;2022-09-20T04:26:30;5.30;;;2.70;;
18217;SDS011;9234;49.344;11.120;2022-09-20T04:29:08;4.10;;;2.90;;
18217;SDS011;9234;49.344;11.120;2022-09-20T04:31:52;3.35;;;2.45;;
18217;SDS011;9234;49.344;11.120;2022-09-20T04:34:30;4.40;;;2.22;;
18217;SDS011;9234;49.344;11.120;2022-09-20T04:37:25;6.97;;;2.30;;
18217;SDS011;9234;49.344;11.120;2022-09-20T04:40:03;2.70;;;2.50;;
18217;SDS011;9234;49.344;11.120;2022-09-20T04:43:04;3.08;;;2.03;;
18217;SDS011;9234;49.344;11.120;2022-09-20T04:46:30;5.97;;;3.17;;
18217;SDS011;9234;49.344;11.120;2022-09-20T04:53:03;4.60;;;2.58;;
18217;SDS011;9234;49.344;11.120;2022-09-20T04:55:56;5.88;;;3.13;;
18217;SDS011;9234;49.344;11.120;2022-09-20T04:58:32;3.08;;;2.70;;
18217;SDS011;9234;49.344;11.120;2022-09-20T05:01:17;5.07;;;2.37;;
18217;SDS011;9234;49.344;11.120;2022-09-20T05:08:15;7.27;;;2.30;;
18217;SDS011;9234;49.344;11.120;2022-09-20T05:11:41;6.60;;;2.20;;
18217;SDS011;9234;49.344;11.120;2022-09-20T05:17:41;4.20;;;2.13;;
18217;SDS011;9234;49.344;11.120;2022-09-20T05:20:48;3.80;;;2.03;;
18217;SDS011;9234;49.344;11.120;2022-09-20T05:23:45;6.77;;;2.43;;
18217;SDS011;9234;49.344;11.120;2022-09-20T05:26:40;6.97;;;2.53;;
18217;SDS011;9234;49.344;11.120;2022-09-20T05:29:27;3.42;;;2.08;;
18217;SDS011;9234;49.344;11.120;2022-09-20T05:32:07;5.30;;;2.88;;
18217;SDS011;9234;49.344;11.120;2022-09-20T05:34:51;11.82;;;5.15;;
18217;SDS011;9234;49.344;11.120;2022-09-20T05:37:29;4.60;;;2.70;;
18217;SDS011;9234;49.344;11.120;2022-09-20T05:40:14;6.65;;;2.90;;
18217;SDS011;9234;49.344;11.120;2022-09-20T05:42:55;5.87;;;3.30;;
18217;SDS011;9234;49.344;11.120;2022-09-20T05:45:46;4.68;;;2.63;;
18217;SDS011;9234;49.344;11.120;2022-09-20T05:48:34;5.67;;;2.77;;
18217;SDS011;9234;49.344;11.120;2022-09-20T05:51:15;7.95;;;3.50;;
18217;SDS011;9234;49.344;11.120;2022-09-20T05:54:07;4.63;;;2.90;;
18217;SDS011;9234;49.344;11.120;2022-09-20T05:57:13;7.70;;;3.60;;
18217;SDS011;9234;49.344;11.120;2022-09-20T05:59:58;6.33;;;3.33;;
18217;SDS011;9234;49.344;11.120;2022-09-20T06:02:40;9.47;;;3.43;;
18217;SDS011;9234;49.344;11.120;2022-09-20T06:05:25;6.07;;;3.40;;
18217;SDS011;9234;49.344;11.120;2022-09-20T06:08:17;5.80;;;3.33;;
18217;SDS011;9234;49.344;11.120;2022-09-20T06:11:09;7.13;;;3.60;;
18217;SDS011;9234;49.344;11.120;2022-09-20T06:14:00;8.23;;;3.95;;
18217;SDS011;9234;49.344;11.120;2022-09-20T06:16:45;7.07;;;3.42;;
18217;SDS011;9234;49.344;11.120;2022-09-20T06:19:25;8.82;;;3.50;;
18217;SDS011;9234;49.344;11.120;2022-09-20T06:22:08;8.03;;;4.17;;
18217;SDS011;9234;49.344;11.120;2022-09-20T06:24:48;8.52;;;4.03;;
18217;SDS011;9234;49.344;11.120;2022-09-20T06:27:27;7.22;;;3.83;;
18217;SDS011;9234;49.344;11.120;2022-09-20T06:30:04;7.38;;;3.95;;
18217;SDS011;9234;49.344;11.120;2022-09-20T06:32:51;9.02;;;2.95;;
18217;SDS011;9234;49.344;11.120;2022-09-20T06:35:27;9.77;;;4.90;;
18217;SDS011;9234;49.344;11.120;2022-09-20T06:38:06;11.38;;;4.15;;
18217;SDS011;9234;49.344;11.120;2022-09-20T06:41:42;8.02;;;3.78;;
18217;SDS011;9234;49.344;11.120;2022-09-20T06:44:11;5.90;;;4.50;;
18217;SDS011;9234;49.344;11.120;2022-09-20T06:46:39;7.30;;;3.75;;
18217;SDS011;9234;49.344;11.120;2022-09-20T06:49:07;9.43;;;3.63;;
18217;SDS011;9234;49.344;11.120;2022-09-20T06:51:36;9.68;;;3.72;;
18217;SDS011;9234;49.344;11.120;2022-09-20T06:54:06;14.38;;;10.57;;
18217;SDS011;9234;49.344;11.120;2022-09-20T06:56:45;11.35;;;5.80;;
18217;SDS011;9234;49.344;11.120;2022-09-20T06:59:16;12.55;;;9.90;;
18217;SDS011;9234;49.344;11.120;2022-09-20T07:01:44;10.98;;;3.83;;
18217;SDS011;9234;49.344;11.120;2022-09-20T07:04:12;7.07;;;3.95;;
18217;SDS011;9234;49.344;11.120;2022-09-20T07:06:41;9.02;;;4.70;;
18217;SDS011;9234;49.344;11.120;2022-09-20T07:09:09;13.63;;;3.63;;
18217;SDS011;9234;49.344;11.120;2022-09-20T07:11:37;7.55;;;3.28;;
18217;SDS011;9234;49.344;11.120;2022-09-20T07:14:07;6.60;;;3.90;;
18217;SDS011;9234;49.344;11.120;2022-09-20T07:16:36;7.65;;;3.60;;
18217;SDS011;9234;49.344;11.120;2022-09-20T07:19:05;8.23;;;2.72;;
18217;SDS011;9234;49.344;11.120;2022-09-20T07:21:33;8.07;;;3.03;;
18217;SDS011;9234;49.344;11.120;2022-09-20T07:24:01;5.68;;;2.78;;
18217;SDS011;9234;49.344;11.120;2022-09-20T07:26:29;7.70;;;2.83;;
18217;SDS011;9234;49.344;11.120;2022-09-20T07:28:58;8.60;;;3.53;;
18217;SDS011;9234;49.344;11.120;2022-09-20T07:31:28;5.97;;;2.78;;
18217;SDS011;9234;49.344;11.120;2022-09-20T07:33:57;8.35;;;3.17;;
18217;SDS011;9234;49.344;11.120;2022-09-20T07:36:25;12.18;;;3.75;;
18217;SDS011;9234;49.344;11.120;2022-09-20T07:38:54;5.65;;;3.08;;
18217;SDS011;9234;49.344;11.120;2022-09-20T07:41:22;11.10;;;3.53;;
18217;SDS011;9234;49.344;11.120;2022-09-20T07:43:51;6.38;;;2.85;;
18217;SDS011;9234;49.344;11.120;2022-09-20T07:46:19;6.53;;;3.03;;
18217;SDS011;9234;49.344;11.120;2022-09-20T07:48:50;11.40;;;3.50;;
18217;SDS011;9234;49.344;11.120;2022-09-20T07:51:18;7.93;;;3.60;;
18217;SDS011;9234;49.344;11.120;2022-09-20T07:53:47;7.88;;;3.10;;
18217;SDS011;9234;49.344;11.120;2022-09-20T07:56:15;6.25;;;2.88;;
18217;SDS011;9234;49.344;11.120;2022-09-20T07:58:44;9.23;;;3.50;;
18217;SDS011;9234;49.344;11.120;2022-09-20T08:01:17;9.38;;;2.55;;
18217;SDS011;9234;49.344;11.120;2022-09-20T08:03:48;8.93;;;3.10;;
18217;SDS011;9234;49.344;11.120;2022-09-20T08:06:18;5.65;;;2.55;;
18217;SDS011;9234;49.344;11.120;2022-09-20T08:08:47;8.52;;;3.08;;
18217;SDS011;9234;49.344;11.120;2022-09-20T08:11:17;5.82;;;2.08;;
18217;SDS011;9234;49.344;11.120;2022-09-20T08:13:53;6.88;;;2.78;;
18217;SDS011;9234;49.344;11.120;2022-09-20T08:16:39;6.95;;;2.65;;
18217;SDS011;9234;49.344;11.120;2022-09-20T08:19:13;7.45;;;2.53;;
18217;SDS011;9234;49.344;11.120;2022-09-20T08:21:44;6.63;;;2.10;;
18217;SDS011;9234;49.344;11.120;2022-09-20T08:24:13;12.10;;;3.13;;
18217;SDS011;9234;49.344;11.120;2022-09-20T08:26:42;7.38;;;2.65;;
18217;SDS011;9234;49.344;11.120;2022-09-20T08:29:11;8.00;;;2.95;;
18217;SDS011;9234;49.344;11.120;2022-09-20T08:31:40;2.85;;;1.92;;
18217;SDS011;9234;49.344;11.120;2022-09-20T08:34:09;5.13;;;2.40;;
18217;SDS011;9234;49.344;11.120;2022-09-20T08:36:40;8.90;;;2.22;;
18217;SDS011;9234;49.344;11.120;2022-09-20T08:39:14;10.43;;;2.10;;
18217;SDS011;9234;49.344;11.120;2022-09-20T08:42:06;5.93;;;3.08;;
18217;SDS011;9234;49.344;11.120;2022-09-20T08:44:46;8.18;;;1.90;;
18217;SDS011;9234;49.344;11.120;2022-09-20T08:47:24;5.53;;;2.03;;
18217;SDS011;9234;49.344;11.120;2022-09-20T08:49:56;6.88;;;2.95;;
18217;SDS011;9234;49.344;11.120;2022-09-20T08:52:35;6.10;;;1.95;;
18217;SDS011;9234;49.344;11.120;2022-09-20T08:55:12;7.88;;;1.80;;
18217;SDS011;9234;49.344;11.120;2022-09-20T08:57:44;8.63;;;2.45;;
18217;SDS011;9234;49.344;11.120;2022-09-20T09:00:17;9.15;;;2.00;;
18217;SDS011;9234;49.344;11.120;2022-09-20T09:02:47;5.88;;;1.98;;
18217;SDS011;9234;49.344;11.120;2022-09-20T09:05:30;6.88;;;1.60;;
18217;SDS011;9234;49.344;11.120;2022-09-20T09:08:02;6.25;;;1.70;;
18217;SDS011;9234;49.344;11.120;2022-09-20T09:10:43;7.50;;;1.50;;
18217;SDS011;9234;49.344;11.120;2022-09-20T09:13:20;3.92;;;1.42;;
18217;SDS011;9234;49.344;11.120;2022-09-20T09:15:55;5.47;;;1.58;;
18217;SDS011;9234;49.344;11.120;2022-09-20T09:18:29;3.97;;;1.42;;
18217;SDS011;9234;49.344;11.120;2022-09-20T09:21:01;4.18;;;1.23;;
18217;SDS011;9234;49.344;11.120;2022-09-20T09:23:37;4.97;;;1.58;;
18217;SDS011;9234;49.344;11.120;2022-09-20T09:26:15;5.15;;;1.40;;
18217;SDS011;9234;49.344;11.120;2022-09-20T09:31:43;7.35;;;1.38;;
18217;SDS011;9234;49.344;11.120;2022-09-20T09:34:23;4.47;;;1.30;;
18217;SDS011;9234;49.344;11.120;2022-09-20T09:36:53;6.38;;;1.80;;
18217;SDS011;9234;49.344;11.120;2022-09-20T09:39:24;3.40;;;1.25;;
18217;SDS011;9234;49.344;11.120;2022-09-20T09:41:55;5.53;;;1.73;;
18217;SDS011;9234;49.344;11.120;2022-09-20T09:44:26;2.30;;;1.20;;
18217;SDS011;9234;49.344;11.120;2022-09-20T09:46:57;5.85;;;1.15;;
18217;SDS011;9234;49.344;11.120;2022-09-20T09:49:26;3.25;;;1.15;;
18217;SDS011;9234;49.344;11.120;2022-09-20T09:52:06;6.13;;;1.10;;
18217;SDS011;9234;49.344;11.120;2022-09-20T09:54:41;6.18;;;1.65;;
18217;SDS011;9234;49.344;11.120;2022-09-20T10:00:19;4.85;;;0.85;;
18217;SDS011;9234;49.344;11.120;2022-09-20T10:06:06;2.63;;;1.00;;
18217;SDS011;9234;49.344;11.120;2022-09-20T10:08:49;11.52;;;7.10;;
18217;SDS011;9234;49.344;11.120;2022-09-20T10:11:35;4.13;;;3.15;;
18217;SDS011;9234;49.344;11.120;2022-09-20T10:14:39;5.50;;;2.40;;
18217;SDS011;9234;49.344;11.120;2022-09-20T10:17:33;3.95;;;1.80;;
18217;SDS011;9234;49.344;11.120;2022-09-20T10:20:22;2.45;;;1.23;;
18217;SDS011;9234;49.344;11.120;2022-09-20T10:23:08;1.65;;;1.02;;
18217;SDS011;9234;49.344;11.120;2022-09-20T10:26:21;2.90;;;1.13;;
18217;SDS011;9234;49.344;11.120;2022-09-20T10:29:07;1.98;;;0.85;;
18217;SDS011;9234;49.344;11.120;2022-09-20T10:31:52;2.85;;;0.80;;
18217;SDS011;9234;49.344;11.120;2022-09-20T10:37:37;2.88;;;1.27;;
18217;SDS011;9234;49.344;11.120;2022-09-20T10:40:20;5.07;;;1.45;;
18217;SDS011;9234;49.344;11.120;2022-09-20T10:43:15;5.05;;;1.20;;
18217;SDS011;9234;49.344;11.120;2022-09-20T10:45:59;3.35;;;1.42;;
18217;SDS011;9234;49.344;11.120;2022-09-20T10:49:02;6.38;;;1.50;;
18217;SDS011;9234;49.344;11.120;2022-09-20T10:51:46;4.25;;;1.45;;
18217;SDS011;9234;49.344;11.120;2022-09-20T10:54:31;4.78;;;1.38;;
18217;SDS011;9234;49.344;11.120;2022-09-20T10:57:20;5.32;;;1.98;;
18217;SDS011;9234;49.344;11.120;2022-09-20T11:00:18;2.28;;;1.08;;
18217;SDS011;9234;49.344;11.120;2022-09-20T11:02:57;4.50;;;1.35;;
18217;SDS011;9234;49.344;11.120;2022-09-20T11:05:53;4.20;;;1.17;;
18217;SDS011;9234;49.344;11.120;2022-09-20T11:08:41;1.48;;;0.90;;
18217;SDS011;9234;49.344;11.120;2022-09-20T11:11:16;3.03;;;0.93;;
18217;SDS011;9234;49.344;11.120;2022-09-20T11:13:53;1.98;;;0.95;;
18217;SDS011;9234;49.344;11.120;2022-09-20T11:16:32;3.53;;;1.20;;
18217;SDS011;9234;49.344;11.120;2022-09-20T11:19:11;11.02;;;1.67;;
18217;SDS011;9234;49.344;11.120;2022-09-20T11:21:52;4.38;;;1.50;;
18217;SDS011;9234;49.344;11.120;2022-09-20T11:24:29;3.42;;;1.30;;
18217;SDS011;9234;49.344;11.120;2022-09-20T11:27:04;4.55;;;1.00;;
18217;SDS011;9234;49.344;11.120;2022-09-20T11:29:44;4.30;;;1.00;;
18217;SDS011;9234;49.344;11.120;2022-09-20T11:32:19;4.53;;;3.15;;
18217;SDS011;9234;49.344;11.120;2022-09-20T11:34:54;4.00;;;1.63;;
18217;SDS011;9234;49.344;11.120;2022-09-20T11:37:31;2.10;;;1.30;;
18217;SDS011;9234;49.344;11.120;2022-09-20T11:40:07;2.28;;;1.20;;
18217;SDS011;9234;49.344;11.120;2022-09-20T11:42:47;6.18;;;1.67;;
18217;SDS011;9234;49.344;11.120;2022-09-20T11:45:19;5.03;;;1.35;;
18217;SDS011;9234;49.344;11.120;2022-09-20T11:47:53;6.65;;;1.98;;
18217;SDS011;9234;49.344;11.120;2022-09-20T11:50:35;7.20;;;2.00;;
18217;SDS011;9234;49.344;11.120;2022-09-20T11:53:44;3.88;;;1.30;;
18217;SDS011;9234;49.344;11.120;2022-09-20T11:56:28;5.30;;;1.30;;
18217;SDS011;9234;49.344;11.120;2022-09-20T11:59:01;3.38;;;1.15;;
18217;SDS011;9234;49.344;11.120;2022-09-20T12:01:34;5.38;;;1.65;;
18217;SDS011;9234;49.344;11.120;2022-09-20T12:04:06;7.10;;;2.00;;
18217;SDS011;9234;49.344;11.120;2022-09-20T12:07:05;2.38;;;1.02;;
18217;SDS011;9234;49.344;11.120;2022-09-20T12:09:45;4.32;;;1.45;;
18217;SDS011;9234;49.344;11.120;2022-09-20T12:12:26;4.35;;;2.05;;
18217;SDS011;9234;49.344;11.120;2022-09-20T12:15:06;3.55;;;1.38;;
18217;SDS011;9234;49.344;11.120;2022-09-20T12:21:09;4.43;;;1.63;;
18217;SDS011;9234;49.344;11.120;2022-09-20T12:26:47;4.05;;;1.02;;
18217;SDS011;9234;49.344;11.120;2022-09-20T12:38:46;5.68;;;1.40;;
18217;SDS011;9234;49.344;11.120;2022-09-20T12:41:49;6.00;;;1.70;;
18217;SDS011;9234;49.344;11.120;2022-09-20T12:44:24;3.42;;;1.02;;
18217;SDS011;9234;49.344;11.120;2022-09-20T12:46:59;2.53;;;1.30;;
18217;SDS011;9234;49.344;11.120;2022-09-20T12:52:38;3.67;;;0.80;;
18217;SDS011;9234;49.344;11.120;2022-09-20T12:55:29;1.15;;;0.50;;
18217;SDS011;9234;49.344;11.120;2022-09-20T12:58:18;1.45;;;0.47;;
18217;SDS011;9234;49.344;11.120;2022-09-20T13:07:42;4.57;;;0.52;;
18217;SDS011;9234;49.344;11.120;2022-09-20T13:10:28;3.30;;;0.60;;
18217;SDS011;9234;49.344;11.120;2022-09-20T13:13:04;2.25;;;0.60;;
18217;SDS011;9234;49.344;11.120;2022-09-20T13:15:49;2.17;;;1.02;;
18217;SDS011;9234;49.344;11.120;2022-09-20T13:18:20;2.15;;;0.93;;
18217;SDS011;9234;49.344;11.120;2022-09-20T13:20:51;2.60;;;0.93;;
18217;SDS011;9234;49.344;11.120;2022-09-20T13:23:24;2.00;;;0.73;;
18217;SDS011;9234;49.344;11.120;2022-09-20T13:25:56;1.83;;;0.70;;
18217;SDS011;9234;49.344;11.120;2022-09-20T13:28:27;2.33;;;0.88;;
18217;SDS011;9234;49.344;11.120;2022-09-20T13:33:58;3.47;;;0.80;;
18217;SDS011;9234;49.344;11.120;2022-09-20T13:36:41;2.20;;;0.80;;
18217;SDS011;9234;49.344;11.120;2022-09-20T13:39:19;2.45;;;0.77;;
18217;SDS011;9234;49.344;11.120;2022-09-20T13:41:58;1.92;;;0.60;;
18217;SDS011;9234;49.344;11.120;2022-09-20T13:44:32;2.75;;;0.70;;
18217;SDS011;9234;49.344;11.120;2022-09-20T13:47:18;0.95;;;0.45;;
18217;SDS011;9234;49.344;11.120;2022-09-20T13:49:49;2.92;;;1.33;;
18217;SDS011;9234;49.344;11.120;2022-09-20T13:52:21;1.52;;;0.55;;
18217;SDS011;9234;49.344;11.120;2022-09-20T13:54:52;1.42;;;0.50;;
18217;SDS011;9234;49.344;11.120;2022-09-20T13:57:21;3.10;;;1.02;;
18217;SDS011;9234;49.344;11.120;2022-09-20T13:59:54;2.65;;;0.60;;
18217;SDS011;9234;49.344;11.120;2022-09-20T14:02:25;3.97;;;0.70;;
18217;SDS011;9234;49.344;11.120;2022-09-20T14:04:58;1.33;;;0.50;;
18217;SDS011;9234;49.344;11.120;2022-09-20T14:07:29;2.38;;;0.77;;
18217;SDS011;9234;49.344;11.120;2022-09-20T14:10:02;2.63;;;1.45;;
18217;SDS011;9234;49.344;11.120;2022-09-20T14:12:31;1.85;;;0.90;;
18217;SDS011;9234;49.344;11.120;2022-09-20T14:15:02;2.00;;;0.65;;
18217;SDS011;9234;49.344;11.120;2022-09-20T14:17:37;1.98;;;0.57;;
18217;SDS011;9234;49.344;11.120;2022-09-20T14:20:08;2.10;;;0.47;;
18217;SDS011;9234;49.344;11.120;2022-09-20T14:22:43;1.02;;;0.50;;
18217;SDS011;9234;49.344;11.120;2022-09-20T14:25:19;2.50;;;0.75;;
18217;SDS011;9234;49.344;11.120;2022-09-20T14:30:44;2.00;;;0.95;;
18217;SDS011;9234;49.344;11.120;2022-09-20T14:33:15;3.28;;;1.00;;
18217;SDS011;9234;49.344;11.120;2022-09-20T14:35:47;1.77;;;1.00;;
18217;SDS011;9234;49.344;11.120;2022-09-20T14:38:17;1.90;;;1.00;;
18217;SDS011;9234;49.344;11.120;2022-09-20T14:40:51;1.83;;;0.77;;
18217;SDS011;9234;49.344;11.120;2022-09-20T14:43:21;5.05;;;0.93;;
18217;SDS011;9234;49.344;11.120;2022-09-20T14:45:55;3.20;;;0.80;;
18217;SDS011;9234;49.344;11.120;2022-09-20T14:48:31;2.97;;;1.00;;
18217;SDS011;9234;49.344;11.120;2022-09-20T14:51:10;1.42;;;0.35;;
18217;SDS011;9234;49.344;11.120;2022-09-20T14:53:50;3.17;;;0.90;;
18217;SDS011;9234;49.344;11.120;2022-09-20T14:56:40;4.32;;;0.82;;
18217;SDS011;9234;49.344;11.120;2022-09-20T14:59:20;3.88;;;0.52;;
18217;SDS011;9234;49.344;11.120;2022-09-20T15:01:56;2.15;;;0.68;;
18217;SDS011;9234;49.344;11.120;2022-09-20T15:04:30;3.28;;;0.90;;
18217;SDS011;9234;49.344;11.120;2022-09-20T15:07:03;2.92;;;1.05;;
18217;SDS011;9234;49.344;11.120;2022-09-20T15:09:35;1.35;;;0.60;;
18217;SDS011;9234;49.344;11.120;2022-09-20T15:12:04;1.83;;;0.82;;
18217;SDS011;9234;49.344;11.120;2022-09-20T15:14:38;3.58;;;1.30;;
18217;SDS011;9234;49.344;11.120;2022-09-20T15:17:08;2.10;;;0.95;;
18217;SDS011;9234;49.344;11.120;2022-09-20T15:19:42;3.67;;;2.05;;
18217;SDS011;9234;49.344;11.120;2022-09-20T15:22:10;1.10;;;0.63;;
18217;SDS011;9234;49.344;11.120;2022-09-20T15:24:39;1.98;;;0.80;;
18217;SDS011;9234;49.344;11.120;2022-09-20T15:27:08;1.92;;;0.75;;
18217;SDS011;9234;49.344;11.120;2022-09-20T15:29:38;2.10;;;0.80;;
18217;SDS011;9234;49.344;11.120;2022-09-20T15:32:07;5.50;;;1.08;;
18217;SDS011;9234;49.344;11.120;2022-09-20T15:34:37;1.23;;;0.73;;
18217;SDS011;9234;49.344;11.120;2022-09-20T15:37:07;3.60;;;0.90;;
18217;SDS011;9234;49.344;11.120;2022-09-20T15:39:35;1.38;;;0.65;;
18217;SDS011;9234;49.344;11.120;2022-09-20T15:42:03;2.17;;;0.82;;
18217;SDS011;9234;49.344;11.120;2022-09-20T15:44:32;2.05;;;0.65;;
18217;SDS011;9234;49.344;11.120;2022-09-20T15:47:00;1.92;;;0.70;;
18217;SDS011;9234;49.344;11.120;2022-09-20T15:49:29;4.20;;;1.42;;
18217;SDS011;9234;49.344;11.120;2022-09-20T15:51:58;1.90;;;1.38;;
18217;SDS011;9234;49.344;11.120;2022-09-20T15:54:28;1.35;;;1.08;;
18217;SDS011;9234;49.344;11.120;2022-09-20T15:56:56;3.83;;;1.38;;
18217;SDS011;9234;49.344;11.120;2022-09-20T15:59:24;1.88;;;0.50;;
18217;SDS011;9234;49.344;11.120;2022-09-20T16:01:54;1.48;;;0.70;;
18217;SDS011;9234;49.344;11.120;2022-09-20T16:04:22;1.42;;;0.70;;
18217;SDS011;9234;49.344;11.120;2022-09-20T16:06:52;3.65;;;0.77;;
18217;SDS011;9234;49.344;11.120;2022-09-20T16:09:20;0.60;;;0.43;;
18217;SDS011;9234;49.344;11.120;2022-09-20T16:11:50;1.23;;;0.40;;
18217;SDS011;9234;49.344;11.120;2022-09-20T16:14:24;1.75;;;0.50;;
18217;SDS011;9234;49.344;11.120;2022-09-20T16:16:53;2.10;;;1.10;;
18217;SDS011;9234;49.344;11.120;2022-09-20T16:19:21;1.27;;;0.98;;
18217;SDS011;9234;49.344;11.120;2022-09-20T16:21:51;2.17;;;0.60;;
18217;SDS011;9234;49.344;11.120;2022-09-20T16:24:25;1.20;;;0.80;;
18217;SDS011;9234;49.344;11.120;2022-09-20T16:26:56;0.77;;;0.60;;
18217;SDS011;9234;49.344;11.120;2022-09-20T16:29:27;1.45;;;0.68;;
18217;SDS011;9234;49.344;11.120;2022-09-20T16:31:56;1.25;;;0.57;;
18217;SDS011;9234;49.344;11.120;2022-09-20T16:34:26;1.27;;;0.70;;
18217;SDS011;9234;49.344;11.120;2022-09-20T16:36:56;2.40;;;0.57;;
18217;SDS011;9234;49.344;11.120;2022-09-20T16:39:28;2.25;;;0.52;;
18217;SDS011;9234;49.344;11.120;2022-09-20T16:41:58;1.42;;;0.70;;
18217;SDS011;9234;49.344;11.120;2022-09-20T16:44:29;1.92;;;0.75;;
18217;SDS011;9234;49.344;11.120;2022-09-20T16:46:59;1.80;;;0.68;;
18217;SDS011;9234;49.344;11.120;2022-09-20T16:49:27;0.82;;;0.60;;
18217;SDS011;9234;49.344;11.120;2022-09-20T16:51:55;2.85;;;1.08;;
18217;SDS011;9234;49.344;11.120;2022-09-20T16:54:23;4.53;;;1.55;;
18217;SDS011;9234;49.344;11.120;2022-09-20T16:56:58;1.80;;;0.60;;
18217;SDS011;9234;49.344;11.120;2022-09-20T16:59:27;3.42;;;1.40;;
18217;SDS011;9234;49.344;11.120;2022-09-20T17:01:56;2.03;;;1.02;;
18217;SDS011;9234;49.344;11.120;2022-09-20T17:04:24;1.17;;;0.45;;
18217;SDS011;9234;49.344;11.120;2022-09-20T17:06:52;2.65;;;0.60;;